sensor_id;sensor_type;location;lat;lon;timestamp;pressure;altitude;pressure_sealevel;temperature;humidity
58473;BME280;44775;51.564;5.460;2024-01-11T00:01:17;102888.47;;;-5.78;100.00
58473;BME280;44775;51.564;5.460;2024-01-11T00:03:43;102875.50;;;-5.84;100.00
58473;BME280;44775;51.564;5.460;2024-01-11T00:06:08;102877.25;;;-5.80;100.00
58473;BME280;44775;51.564;5.460;2024-01-11T00:08:33;102898.81;;;-5.66;100.00
58473;BME280;44775;51.564;5.460;2024-01-11T00:10:59;102874.69;;;-5.88;100.00
58473;BME280;44775;51.564;5.460;2024-01-11T00:13:24;102892.91;;;-5.86;100.00
58473;BME280;44775;51.564;5.460;2024-01-11T00:15:49;102899.78;;;-5.79;100.00
58473;BME280;44775;51.564;5.460;2024-01-11T00:18:15;102912.88;;;-5.87;100.00
58473;BME280;44775;51.564;5.460;2024-01-11T00:20:40;102904.31;;;-5.98;100.00
58473;BME280;44775;51.564;5.460;2024-01-11T00:23:05;102890.09;;;-5.63;100.00
58473;BME280;44775;51.564;5.460;2024-01-11T00:25:30;102899.81;;;-5.84;100.00
58473;BME280;44775;51.564;5.460;2024-01-11T00:27:56;102898.94;;;-5.84;100.00
58473;BME280;44775;51.564;5.460;2024-01-11T00:30:21;102897.25;;;-5.88;100.00
58473;BME280;44775;51.564;5.460;2024-01-11T00:32:48;102892.91;;;-5.86;100.00
58473;BME280;44775;51.564;5.460;2024-01-11T00:35:13;102894.66;;;-5.91;100.00
58473;BME280;44775;51.564;5.460;2024-01-11T00:37:39;102899.81;;;-5.82;100.00
58473;BME280;44775;51.564;5.460;2024-01-11T00:40:05;102896.41;;;-5.90;100.00
58473;BME280;44775;51.564;5.460;2024-01-11T00:42:30;102895.50;;;-5.86;100.00
58473;BME280;44775;51.564;5.460;2024-01-11T00:44:56;102898.13;;;-5.89;100.00
58473;BME280;44775;51.564;5.460;2024-01-11T00:47:21;102886.06;;;-5.95;100.00
58473;BME280;44775;51.564;5.460;2024-01-11T00:49:46;102904.19;;;-5.87;100.00
58473;BME280;44775;51.564;5.460;2024-01-11T00:52:12;102902.53;;;-5.95;100.00
58473;BME280;44775;51.564;5.460;2024-01-11T00:54:39;102901.75;;;-6.03;100.00
58473;BME280;44775;51.564;5.460;2024-01-11T00:57:04;102894.75;;;-5.96;100.00
58473;BME280;44775;51.564;5.460;2024-01-11T00:59:29;102874.09;;;-6.16;100.00
58473;BME280;44775;51.564;5.460;2024-01-11T01:01:55;102895.66;;;-6.00;100.00
58473;BME280;44775;51.564;5.460;2024-01-11T01:04:20;102881.78;;;-6.02;100.00
58473;BME280;44775;51.564;5.460;2024-01-11T01:06:45;102897.41;;;-6.05;100.00
58473;BME280;44775;51.564;5.460;2024-01-11T01:09:11;102900.97;;;-6.14;100.00
58473;BME280;44775;51.564;5.460;2024-01-11T01:11:38;102898.41;;;-6.22;100.00
58473;BME280;44775;51.564;5.460;2024-01-11T01:14:05;102889.75;;;-6.25;100.00
58473;BME280;44775;51.564;5.460;2024-01-11T01:16:30;102903.13;;;-5.65;100.00
58473;BME280;44775;51.564;5.460;2024-01-11T01:18:55;102883.56;;;-5.19;100.00
58473;BME280;44775;51.564;5.460;2024-01-11T01:21:20;102898.97;;;-5.87;100.00
58473;BME280;44775;51.564;5.460;2024-01-11T01:23:46;102911.88;;;-4.90;100.00
58473;BME280;44775;51.564;5.460;2024-01-11T01:26:11;102907.47;;;-5.67;100.00
58473;BME280;44775;51.564;5.460;2024-01-11T01:28:38;102910.19;;;-5.76;100.00
58473;BME280;44775;51.564;5.460;2024-01-11T01:31:05;102914.22;;;-5.44;100.00
58473;BME280;44775;51.564;5.460;2024-01-11T01:33:30;102920.66;;;-5.85;100.00
58473;BME280;44775;51.564;5.460;2024-01-11T01:35:55;102924.91;;;-5.72;100.00
58473;BME280;44775;51.564;5.460;2024-01-11T01:38:20;102922.59;;;-5.16;100.00
58473;BME280;44775;51.564;5.460;2024-01-11T01:40:46;102907.53;;;-4.88;100.00
58473;BME280;44775;51.564;5.460;2024-01-11T01:43:11;102931.41;;;-5.25;100.00
58473;BME280;44775;51.564;5.460;2024-01-11T01:45:38;102930.84;;;-5.58;100.00
58473;BME280;44775;51.564;5.460;2024-01-11T01:48:03;102931.84;;;-5.74;100.00
58473;BME280;44775;51.564;5.460;2024-01-11T01:50:29;102924.28;;;-6.02;100.00
58473;BME280;44775;51.564;5.460;2024-01-11T01:52:55;102940.81;;;-6.06;100.00
58473;BME280;44775;51.564;5.460;2024-01-11T01:55:21;102947.84;;;-6.20;100.00
58473;BME280;44775;51.564;5.460;2024-01-11T01:57:48;102950.44;;;-6.17;100.00
58473;BME280;44775;51.564;5.460;2024-01-11T02:00:15;102953.78;;;-6.01;100.00
58473;BME280;44775;51.564;5.460;2024-01-11T02:02:43;102957.03;;;-5.75;100.00
58473;BME280;44775;51.564;5.460;2024-01-11T02:05:10;102943.44;;;-6.07;100.00
58473;BME280;44775;51.564;5.460;2024-01-11T02:07:36;102944.25;;;-5.99;100.00
58473;BME280;44775;51.564;5.460;2024-01-11T02:10:02;102943.50;;;-6.18;100.00
58473;BME280;44775;51.564;5.460;2024-01-11T02:12:28;102934.94;;;-6.35;100.00
58473;BME280;44775;51.564;5.460;2024-01-11T02:14:54;102927.22;;;-6.48;100.00
58473;BME280;44775;51.564;5.460;2024-01-11T02:17:20;102919.53;;;-6.75;100.00
58473;BME280;44775;51.564;5.460;2024-01-11T02:19:46;102920.34;;;-6.62;100.00
58473;BME280;44775;51.564;5.460;2024-01-11T02:22:22;102916.94;;;-6.77;100.00
58473;BME280;44775;51.564;5.460;2024-01-11T02:24:49;102929.06;;;-6.68;100.00
58473;BME280;44775;51.564;5.460;2024-01-11T02:27:14;102929.03;;;-6.63;100.00
58473;BME280;44775;51.564;5.460;2024-01-11T02:29:40;102938.16;;;-6.00;100.00
58473;BME280;44775;51.564;5.460;2024-01-11T02:32:05;102935.19;;;-5.57;100.00
58473;BME280;44775;51.564;5.460;2024-01-11T02:34:31;102930.44;;;-5.18;100.00
58473;BME280;44775;51.564;5.460;2024-01-11T02:36:58;102952.09;;;-6.07;100.00
58473;BME280;44775;51.564;5.460;2024-01-11T02:39:24;102931.44;;;-6.31;100.00
58473;BME280;44775;51.564;5.460;2024-01-11T02:41:51;102931.81;;;-5.70;100.00
58473;BME280;44775;51.564;5.460;2024-01-11T02:44:16;102942.38;;;-5.86;100.00
58473;BME280;44775;51.564;5.460;2024-01-11T02:46:42;102936.63;;;-6.28;100.00
58473;BME280;44775;51.564;5.460;2024-01-11T02:49:07;102934.94;;;-6.38;100.00
58473;BME280;44775;51.564;5.460;2024-01-11T02:51:32;102938.38;;;-6.32;100.00
58473;BME280;44775;51.564;5.460;2024-01-11T02:53:58;102938.50;;;-6.55;100.00
58473;BME280;44775;51.564;5.460;2024-01-11T02:56:23;102937.50;;;-6.32;100.00
58473;BME280;44775;51.564;5.460;2024-01-11T02:58:49;102922.97;;;-6.70;100.00
58473;BME280;44775;51.564;5.460;2024-01-11T03:01:14;102923.84;;;-6.73;100.00
58473;BME280;44775;51.564;5.460;2024-01-11T03:03:39;102937.72;;;-6.72;100.00
58473;BME280;44775;51.564;5.460;2024-01-11T03:06:05;102934.28;;;-6.74;100.00
58473;BME280;44775;51.564;5.460;2024-01-11T03:08:31;102936.81;;;-6.63;100.00
58473;BME280;44775;51.564;5.460;2024-01-11T03:10:56;102926.50;;;-6.86;100.00
58473;BME280;44775;51.564;5.460;2024-01-11T03:13:23;102928.28;;;-6.92;100.00
58473;BME280;44775;51.564;5.460;2024-01-11T03:15:48;102938.69;;;-6.95;100.00
58473;BME280;44775;51.564;5.460;2024-01-11T03:18:13;102940.44;;;-6.98;100.00
58473;BME280;44775;51.564;5.460;2024-01-11T03:20:38;102923.91;;;-6.86;100.00
58473;BME280;44775;51.564;5.460;2024-01-11T03:23:04;102913.59;;;-7.05;100.00
58473;BME280;44775;51.564;5.460;2024-01-11T03:25:30;102933.44;;;-6.89;100.00
58473;BME280;44775;51.564;5.460;2024-01-11T03:27:55;102931.75;;;-6.91;100.00
58473;BME280;44775;51.564;5.460;2024-01-11T03:30:20;102925.59;;;-6.73;100.00
58473;BME280;44775;51.564;5.460;2024-01-11T03:32:45;102922.16;;;-6.83;100.00
58473;BME280;44775;51.564;5.460;2024-01-11T03:35:11;102935.94;;;-6.66;100.00
58473;BME280;44775;51.564;5.460;2024-01-11T03:37:36;102929.13;;;-6.85;100.00
58473;BME280;44775;51.564;5.460;2024-01-11T03:40:03;102929.97;;;-6.89;100.00
58473;BME280;44775;51.564;5.460;2024-01-11T03:42:28;102921.34;;;-6.99;100.00
58473;BME280;44775;51.564;5.460;2024-01-11T03:44:54;102925.72;;;-7.07;100.00
58473;BME280;44775;51.564;5.460;2024-01-11T03:47:20;102930.00;;;-6.95;100.00
58473;BME280;44775;51.564;5.460;2024-01-11T03:49:45;102928.31;;;-7.13;100.00
58473;BME280;44775;51.564;5.460;2024-01-11T03:52:11;102921.38;;;-7.03;100.00
58473;BME280;44775;51.564;5.460;2024-01-11T03:54:36;102924.00;;;-7.05;100.00
58473;BME280;44775;51.564;5.460;2024-01-11T03:57:01;102924.00;;;-7.02;100.00
58473;BME280;44775;51.564;5.460;2024-01-11T03:59:27;102943.91;;;-7.04;100.00
58473;BME280;44775;51.564;5.460;2024-01-11T04:01:52;102929.03;;;-6.70;100.00
58473;BME280;44775;51.564;5.460;2024-01-11T04:04:18;102928.31;;;-7.04;100.00
58473;BME280;44775;51.564;5.460;2024-01-11T04:06:44;102915.38;;;-7.21;100.00
58473;BME280;44775;51.564;5.460;2024-01-11T04:09:10;102919.69;;;-7.18;100.00
58473;BME280;44775;51.564;5.460;2024-01-11T04:11:35;102931.81;;;-7.11;100.00
58473;BME280;44775;51.564;5.460;2024-01-11T04:14:01;102943.63;;;-6.36;100.00
58473;BME280;44775;51.564;5.460;2024-01-11T04:16:26;102961.41;;;-5.81;100.00
58473;BME280;44775;51.564;5.460;2024-01-11T04:18:51;102962.47;;;-6.02;100.00
58473;BME280;44775;51.564;5.460;2024-01-11T04:21:23;102960.13;;;-6.45;100.00
58473;BME280;44775;51.564;5.460;2024-01-11T04:23:49;102960.19;;;-6.57;100.00
58473;BME280;44775;51.564;5.460;2024-01-11T04:26:14;102952.38;;;-6.54;100.00
58473;BME280;44775;51.564;5.460;2024-01-11T04:28:40;102951.47;;;-6.46;100.00
58473;BME280;44775;51.564;5.460;2024-01-11T04:31:05;102962.63;;;-6.28;100.00
58473;BME280;44775;51.564;5.460;2024-01-11T04:33:32;102970.25;;;-5.98;100.00
58473;BME280;44775;51.564;5.460;2024-01-11T04:35:58;102984.63;;;-5.54;100.00
58473;BME280;44775;51.564;5.460;2024-01-11T04:38:23;102968.50;;;-5.02;100.00
58473;BME280;44775;51.564;5.460;2024-01-11T04:40:48;102981.84;;;-5.34;100.00
58473;BME280;44775;51.564;5.460;2024-01-11T04:43:13;102990.78;;;-5.59;100.00
58473;BME280;44775;51.564;5.460;2024-01-11T04:45:40;102978.25;;;-6.30;100.00
58473;BME280;44775;51.564;5.460;2024-01-11T04:48:05;102963.66;;;-6.61;100.00
58473;BME280;44775;51.564;5.460;2024-01-11T04:50:30;102976.78;;;-6.84;100.00
58473;BME280;44775;51.564;5.460;2024-01-11T04:52:56;102974.19;;;-6.94;100.00
58473;BME280;44775;51.564;5.460;2024-01-11T04:55:21;102976.78;;;-6.97;100.00
58473;BME280;44775;51.564;5.460;2024-01-11T04:57:46;102975.97;;;-7.23;100.00
58473;BME280;44775;51.564;5.460;2024-01-11T05:00:12;102970.78;;;-7.29;100.00
58473;BME280;44775;51.564;5.460;2024-01-11T05:02:37;102969.94;;;-7.28;100.00
58473;BME280;44775;51.564;5.460;2024-01-11T05:05:03;102975.13;;;-7.24;100.00
58473;BME280;44775;51.564;5.460;2024-01-11T05:07:28;102978.50;;;-6.83;100.00
58473;BME280;44775;51.564;5.460;2024-01-11T05:09:54;102981.19;;;-7.22;100.00
58473;BME280;44775;51.564;5.460;2024-01-11T05:12:19;102982.00;;;-7.06;100.00
58473;BME280;44775;51.564;5.460;2024-01-11T05:14:44;102995.94;;;-7.28;100.00
58473;BME280;44775;51.564;5.460;2024-01-11T05:17:09;102996.78;;;-7.37;100.00
58473;BME280;44775;51.564;5.460;2024-01-11T05:19:35;102995.94;;;-7.44;100.00
58473;BME280;44775;51.564;5.460;2024-01-11T05:22:00;102982.94;;;-7.61;100.00
58473;BME280;44775;51.564;5.460;2024-01-11T05:24:25;102995.94;;;-7.59;100.00
58473;BME280;44775;51.564;5.460;2024-01-11T05:26:51;102987.25;;;-7.60;100.00
58473;BME280;44775;51.564;5.460;2024-01-11T05:29:16;102998.50;;;-7.16;100.00
58473;BME280;44775;51.564;5.460;2024-01-11T05:31:41;102995.00;;;-7.00;100.00
58473;BME280;44775;51.564;5.460;2024-01-11T05:34:06;103005.25;;;-6.52;100.00
58473;BME280;44775;51.564;5.460;2024-01-11T05:36:33;103003.22;;;-5.97;100.00
58473;BME280;44775;51.564;5.460;2024-01-11T05:38:59;103024.91;;;-5.93;100.00
58473;BME280;44775;51.564;5.460;2024-01-11T05:41:24;103024.22;;;-6.32;100.00
58473;BME280;44775;51.564;5.460;2024-01-11T05:43:49;103032.88;;;-6.27;100.00
58473;BME280;44775;51.564;5.460;2024-01-11T05:46:14;103020.78;;;-6.31;100.00
58473;BME280;44775;51.564;5.460;2024-01-11T05:48:40;103008.78;;;-6.72;100.00
58473;BME280;44775;51.564;5.460;2024-01-11T05:51:05;103002.81;;;-7.12;100.00
58473;BME280;44775;51.564;5.460;2024-01-11T05:53:30;103002.84;;;-7.27;100.00
58473;BME280;44775;51.564;5.460;2024-01-11T05:56:00;103008.03;;;-7.33;100.00
58473;BME280;44775;51.564;5.460;2024-01-11T05:58:25;103017.56;;;-7.42;100.00
58473;BME280;44775;51.564;5.460;2024-01-11T06:00:50;102999.38;;;-7.57;100.00
58473;BME280;44775;51.564;5.460;2024-01-11T06:03:15;103018.41;;;-7.56;100.00
58473;BME280;44775;51.564;5.460;2024-01-11T06:05:41;103022.69;;;-6.80;100.00
58473;BME280;44775;51.564;5.460;2024-01-11T06:08:06;103021.81;;;-6.75;100.00
58473;BME280;44775;51.564;5.460;2024-01-11T06:10:31;103035.69;;;-6.83;100.00
58473;BME280;44775;51.564;5.460;2024-01-11T06:12:57;103041.75;;;-6.92;100.00
58473;BME280;44775;51.564;5.460;2024-01-11T06:15:22;103040.91;;;-7.06;100.00
58473;BME280;44775;51.564;5.460;2024-01-11T06:17:47;103049.59;;;-7.10;100.00
58473;BME280;44775;51.564;5.460;2024-01-11T06:20:13;103023.63;;;-7.41;100.00
58473;BME280;44775;51.564;5.460;2024-01-11T06:22:38;103028.84;;;-7.52;100.00
58473;BME280;44775;51.564;5.460;2024-01-11T06:25:04;103026.22;;;-7.47;100.00
58473;BME280;44775;51.564;5.460;2024-01-11T06:27:29;103038.31;;;-7.71;100.00
58473;BME280;44775;51.564;5.460;2024-01-11T06:29:54;103033.13;;;-7.72;100.00
58473;BME280;44775;51.564;5.460;2024-01-11T06:32:20;103030.53;;;-7.77;100.00
58473;BME280;44775;51.564;5.460;2024-01-11T06:34:45;103035.72;;;-7.85;100.00
58473;BME280;44775;51.564;5.460;2024-01-11T06:37:11;103028.75;;;-7.93;100.00
58473;BME280;44775;51.564;5.460;2024-01-11T06:39:37;103023.56;;;-7.93;100.00
58473;BME280;44775;51.564;5.460;2024-01-11T06:42:02;103033.91;;;-8.07;100.00
58473;BME280;44775;51.564;5.460;2024-01-11T06:44:28;103042.59;;;-7.99;100.00
58473;BME280;44775;51.564;5.460;2024-01-11T06:46:53;103037.38;;;-8.08;100.00
58473;BME280;44775;51.564;5.460;2024-01-11T06:49:18;103034.78;;;-8.13;100.00
58473;BME280;44775;51.564;5.460;2024-01-11T06:51:43;103040.88;;;-8.06;100.00
58473;BME280;44775;51.564;5.460;2024-01-11T06:54:09;103043.44;;;-8.09;100.00
58473;BME280;44775;51.564;5.460;2024-01-11T06:56:34;103042.53;;;-8.14;100.00
58473;BME280;44775;51.564;5.460;2024-01-11T06:59:00;103047.78;;;-8.02;100.00
58473;BME280;44775;51.564;5.460;2024-01-11T07:01:26;103059.00;;;-8.09;100.00
58473;BME280;44775;51.564;5.460;2024-01-11T07:03:51;103060.75;;;-7.97;100.00
58473;BME280;44775;51.564;5.460;2024-01-11T07:06:17;103048.63;;;-8.09;100.00
58473;BME280;44775;51.564;5.460;2024-01-11T07:08:42;103051.22;;;-8.12;100.00
58473;BME280;44775;51.564;5.460;2024-01-11T07:11:07;103072.88;;;-7.98;100.00
58473;BME280;44775;51.564;5.460;2024-01-11T07:13:33;103065.03;;;-8.19;100.00
58473;BME280;44775;51.564;5.460;2024-01-11T07:15:58;103090.97;;;-8.19;100.00
58473;BME280;44775;51.564;5.460;2024-01-11T07:18:24;103084.94;;;-8.09;100.00
58473;BME280;44775;51.564;5.460;2024-01-11T07:20:50;103080.63;;;-8.01;100.00
58473;BME280;44775;51.564;5.460;2024-01-11T07:23:16;103074.59;;;-8.01;100.00
58473;BME280;44775;51.564;5.460;2024-01-11T07:25:42;103064.31;;;-7.55;100.00
58473;BME280;44775;51.564;5.460;2024-01-11T07:28:07;103080.69;;;-7.89;100.00
58473;BME280;44775;51.564;5.460;2024-01-11T07:30:34;103092.88;;;-6.96;100.00
58473;BME280;44775;51.564;5.460;2024-01-11T07:32:59;103085.94;;;-7.40;100.00
58473;BME280;44775;51.564;5.460;2024-01-11T07:35:24;103088.53;;;-7.60;100.00
58473;BME280;44775;51.564;5.460;2024-01-11T07:37:50;103071.19;;;-7.79;100.00
58473;BME280;44775;51.564;5.460;2024-01-11T07:40:15;103071.22;;;-6.99;100.00
58473;BME280;44775;51.564;5.460;2024-01-11T07:42:42;103079.91;;;-7.45;100.00
58473;BME280;44775;51.564;5.460;2024-01-11T07:45:08;103079.91;;;-7.29;100.00
58473;BME280;44775;51.564;5.460;2024-01-11T07:47:35;103072.03;;;-6.60;100.00
58473;BME280;44775;51.564;5.460;2024-01-11T07:50:01;103083.06;;;-6.02;100.00
58473;BME280;44775;51.564;5.460;2024-01-11T07:52:26;103089.56;;;-5.33;100.00
58473;BME280;44775;51.564;5.460;2024-01-11T07:54:52;103084.59;;;-5.65;100.00
58473;BME280;44775;51.564;5.460;2024-01-11T07:57:19;103088.28;;;-4.86;100.00
58473;BME280;44775;51.564;5.460;2024-01-11T07:59:44;103095.59;;;-4.34;100.00
58473;BME280;44775;51.564;5.460;2024-01-11T08:02:09;103090.59;;;-4.54;100.00
58473;BME280;44775;51.564;5.460;2024-01-11T08:04:35;103077.47;;;-5.43;100.00
58473;BME280;44775;51.564;5.460;2024-01-11T08:07:00;103074.50;;;-6.28;100.00
58473;BME280;44775;51.564;5.460;2024-01-11T08:09:26;103075.44;;;-6.34;100.00
58473;BME280;44775;51.564;5.460;2024-01-11T08:11:51;103071.97;;;-6.42;100.00
58473;BME280;44775;51.564;5.460;2024-01-11T08:14:19;103062.53;;;-6.77;100.00
58473;BME280;44775;51.564;5.460;2024-01-11T08:16:45;103058.22;;;-6.87;100.00
58473;BME280;44775;51.564;5.460;2024-01-11T08:19:10;103059.09;;;-6.91;100.00
58473;BME280;44775;51.564;5.460;2024-01-11T08:21:35;103056.50;;;-7.03;100.00
58473;BME280;44775;51.564;5.460;2024-01-11T08:24:01;103061.72;;;-7.14;100.00
58473;BME280;44775;51.564;5.460;2024-01-11T08:26:28;103060.00;;;-7.15;100.00
58473;BME280;44775;51.564;5.460;2024-01-11T08:28:55;103065.16;;;-6.92;100.00
58473;BME280;44775;51.564;5.460;2024-01-11T08:31:20;103067.75;;;-7.00;100.00
58473;BME280;44775;51.564;5.460;2024-01-11T08:33:46;103074.59;;;-6.40;100.00
58473;BME280;44775;51.564;5.460;2024-01-11T08:36:12;103087.50;;;-6.25;100.00
58473;BME280;44775;51.564;5.460;2024-01-11T08:38:39;103071.00;;;-6.21;100.00
58473;BME280;44775;51.564;5.460;2024-01-11T08:41:05;103072.88;;;-6.55;100.00
58473;BME280;44775;51.564;5.460;2024-01-11T08:43:31;103062.47;;;-6.61;100.00
58473;BME280;44775;51.564;5.460;2024-01-11T08:45:57;103075.25;;;-5.97;100.00
58473;BME280;44775;51.564;5.460;2024-01-11T08:48:22;103069.34;;;-6.34;100.00
58473;BME280;44775;51.564;5.460;2024-01-11T08:50:47;103070.22;;;-6.38;100.00
58473;BME280;44775;51.564;5.460;2024-01-11T08:53:13;103081.97;;;-5.64;100.00
58473;BME280;44775;51.564;5.460;2024-01-11T08:55:38;103087.25;;;-5.81;100.00
58473;BME280;44775;51.564;5.460;2024-01-11T08:58:03;103096.06;;;-5.92;100.00
58473;BME280;44775;51.564;5.460;2024-01-11T09:00:29;103098.19;;;-5.25;100.00
58473;BME280;44775;51.564;5.460;2024-01-11T09:02:55;103093.19;;;-5.54;100.00
58473;BME280;44775;51.564;5.460;2024-01-11T09:05:20;103100.97;;;-5.47;100.00
58473;BME280;44775;51.564;5.460;2024-01-11T09:07:46;103104.28;;;-5.26;100.00
58473;BME280;44775;51.564;5.460;2024-01-11T09:10:18;103103.09;;;-4.88;100.00
58473;BME280;44775;51.564;5.460;2024-01-11T09:12:43;103106.97;;;-5.35;100.00
58473;BME280;44775;51.564;5.460;2024-01-11T09:15:09;103111.34;;;-5.43;100.00
58473;BME280;44775;51.564;5.460;2024-01-11T09:17:35;103110.19;;;-5.04;100.00
58473;BME280;44775;51.564;5.460;2024-01-11T09:20:00;103094.72;;;-5.23;100.00
58473;BME280;44775;51.564;5.460;2024-01-11T09:22:25;103119.09;;;-5.30;100.00
58473;BME280;44775;51.564;5.460;2024-01-11T09:24:51;103125.59;;;-4.77;100.00
58473;BME280;44775;51.564;5.460;2024-01-11T09:27:16;103123.69;;;-4.58;100.00
58473;BME280;44775;51.564;5.460;2024-01-11T09:29:43;103128.66;;;-4.35;100.00
58473;BME280;44775;51.564;5.460;2024-01-11T09:32:09;103134.06;;;-3.77;100.00
58473;BME280;44775;51.564;5.460;2024-01-11T09:34:34;103134.72;;;-3.63;100.00
58473;BME280;44775;51.564;5.460;2024-01-11T09:37:00;103147.41;;;-3.36;100.00
58473;BME280;44775;51.564;5.460;2024-01-11T09:39:26;103149.63;;;-3.11;100.00
58473;BME280;44775;51.564;5.460;2024-01-11T09:41:58;103150.84;;;-3.32;100.00
58473;BME280;44775;51.564;5.460;2024-01-11T09:44:25;103156.63;;;-3.12;100.00
58473;BME280;44775;51.564;5.460;2024-01-11T09:46:51;103158.69;;;-2.78;100.00
58473;BME280;44775;51.564;5.460;2024-01-11T09:49:19;103165.91;;;-2.41;100.00
58473;BME280;44775;51.564;5.460;2024-01-11T09:51:47;103164.56;;;-2.64;100.00
58473;BME280;44775;51.564;5.460;2024-01-11T09:54:13;103159.59;;;-2.29;100.00
58473;BME280;44775;51.564;5.460;2024-01-11T09:56:40;103152.81;;;-1.96;100.00
58473;BME280;44775;51.564;5.460;2024-01-11T09:59:06;103170.06;;;-1.84;100.00
58473;BME280;44775;51.564;5.460;2024-01-11T10:01:34;103173.59;;;-1.45;100.00
58473;BME280;44775;51.564;5.460;2024-01-11T10:04:00;103168.59;;;-1.19;100.00
58473;BME280;44775;51.564;5.460;2024-01-11T10:06:27;103170.72;;;-0.97;100.00
58473;BME280;44775;51.564;5.460;2024-01-11T10:08:52;103180.88;;;-0.83;100.00
58473;BME280;44775;51.564;5.460;2024-01-11T10:11:17;103182.59;;;-0.48;100.00
58473;BME280;44775;51.564;5.460;2024-01-11T10:13:43;103184.81;;;-0.65;100.00
58473;BME280;44775;51.564;5.460;2024-01-11T10:16:09;103178.13;;;-0.12;100.00
58473;BME280;44775;51.564;5.460;2024-01-11T10:18:35;103178.88;;;0.25;100.00
58473;BME280;44775;51.564;5.460;2024-01-11T10:21:01;103178.03;;;0.52;100.00
58473;BME280;44775;51.564;5.460;2024-01-11T10:23:28;103182.75;;;0.99;100.00
58473;BME280;44775;51.564;5.460;2024-01-11T10:25:57;103181.25;;;0.90;95.67
58473;BME280;44775;51.564;5.460;2024-01-11T10:28:25;103188.31;;;1.16;95.08
58473;BME280;44775;51.564;5.460;2024-01-11T10:30:51;103204.69;;;1.26;92.99
58473;BME280;44775;51.564;5.460;2024-01-11T10:33:19;103207.91;;;1.34;91.69
58473;BME280;44775;51.564;5.460;2024-01-11T10:35:45;103189.75;;;1.51;93.94
58473;BME280;44775;51.564;5.460;2024-01-11T10:38:11;103203.94;;;1.49;92.26
58473;BME280;44775;51.564;5.460;2024-01-11T10:40:36;103196.97;;;1.46;90.32
58473;BME280;44775;51.564;5.460;2024-01-11T10:43:02;103199.50;;;1.49;88.79
58473;BME280;44775;51.564;5.460;2024-01-11T10:45:31;103196.78;;;1.52;89.89
58473;BME280;44775;51.564;5.460;2024-01-11T10:48:15;103177.16;;;1.34;87.49
58473;BME280;44775;51.564;5.460;2024-01-11T10:50:44;103195.09;;;1.75;91.66
58473;BME280;44775;51.564;5.460;2024-01-11T10:56:05;103188.59;;;1.60;82.89
58473;BME280;44775;51.564;5.460;2024-01-11T10:58:32;103191.41;;;1.80;89.82
58473;BME280;44775;51.564;5.460;2024-01-11T11:00:59;103172.13;;;1.78;88.63
58473;BME280;44775;51.564;5.460;2024-01-11T11:03:26;103185.94;;;1.85;83.02
58473;BME280;44775;51.564;5.460;2024-01-11T11:05:54;103191.88;;;2.15;88.87
58473;BME280;44775;51.564;5.460;2024-01-11T11:08:23;103198.88;;;2.40;86.34
58473;BME280;44775;51.564;5.460;2024-01-11T11:10:58;103185.63;;;2.65;90.36
58473;BME280;44775;51.564;5.460;2024-01-11T11:13:24;103200.72;;;2.61;77.85
58473;BME280;44775;51.564;5.460;2024-01-11T11:15:51;103200.38;;;2.92;82.48
58473;BME280;44775;51.564;5.460;2024-01-11T11:18:18;103205.09;;;3.06;82.99
58473;BME280;44775;51.564;5.460;2024-01-11T11:20:44;103210.34;;;3.07;80.34
58473;BME280;44775;51.564;5.460;2024-01-11T11:23:11;103221.19;;;3.22;80.64
58473;BME280;44775;51.564;5.460;2024-01-11T11:25:37;103214.25;;;3.19;75.21
58473;BME280;44775;51.564;5.460;2024-01-11T11:28:04;103212.41;;;3.21;76.90
58473;BME280;44775;51.564;5.460;2024-01-11T11:30:31;103216.66;;;3.25;75.29
58473;BME280;44775;51.564;5.460;2024-01-11T11:32:56;103221.00;;;3.26;76.42
58473;BME280;44775;51.564;5.460;2024-01-11T11:35:25;103223.34;;;3.12;72.88
58473;BME280;44775;51.564;5.460;2024-01-11T11:37:56;103203.34;;;3.27;81.73
58473;BME280;44775;51.564;5.460;2024-01-11T11:40:32;103212.50;;;3.40;78.97
58473;BME280;44775;51.564;5.460;2024-01-11T11:42:58;103214.81;;;3.27;77.13
58473;BME280;44775;51.564;5.460;2024-01-11T11:45:26;103215.84;;;3.23;75.01
58473;BME280;44775;51.564;5.460;2024-01-11T11:47:52;103229.59;;;3.31;75.29
58473;BME280;44775;51.564;5.460;2024-01-11T11:50:22;103223.78;;;3.44;79.44
58473;BME280;44775;51.564;5.460;2024-01-11T11:52:54;103227.97;;;3.49;71.63
58473;BME280;44775;51.564;5.460;2024-01-11T11:55:22;103224.16;;;3.57;75.47
58473;BME280;44775;51.564;5.460;2024-01-11T11:57:48;103235.06;;;3.49;70.00
58473;BME280;44775;51.564;5.460;2024-01-11T12:00:15;103238.59;;;3.27;66.45
58473;BME280;44775;51.564;5.460;2024-01-11T12:02:41;103234.28;;;3.25;67.47
58473;BME280;44775;51.564;5.460;2024-01-11T12:05:06;103217.38;;;3.29;69.48
58473;BME280;44775;51.564;5.460;2024-01-11T12:07:32;103220.09;;;3.27;67.25
58473;BME280;44775;51.564;5.460;2024-01-11T12:09:57;103212.22;;;3.26;71.93
58473;BME280;44775;51.564;5.460;2024-01-11T12:12:23;103210.19;;;3.33;72.42
58473;BME280;44775;51.564;5.460;2024-01-11T12:14:48;103206.69;;;3.32;72.70
58473;BME280;44775;51.564;5.460;2024-01-11T12:17:15;103201.66;;;3.46;75.11
58473;BME280;44775;51.564;5.460;2024-01-11T12:19:40;103192.97;;;3.22;69.64
58473;BME280;44775;51.564;5.460;2024-01-11T12:22:05;103194.38;;;3.11;69.73
58473;BME280;44775;51.564;5.460;2024-01-11T12:24:32;103193.56;;;3.08;68.58
58473;BME280;44775;51.564;5.460;2024-01-11T12:26:59;103195.19;;;3.33;74.70
58473;BME280;44775;51.564;5.460;2024-01-11T12:29:25;103199.38;;;3.17;66.81
58473;BME280;44775;51.564;5.460;2024-01-11T12:31:51;103192.69;;;3.08;67.00
58473;BME280;44775;51.564;5.460;2024-01-11T12:34:16;103182.06;;;3.10;75.77
58473;BME280;44775;51.564;5.460;2024-01-11T12:36:42;103176.03;;;3.28;80.52
58473;BME280;44775;51.564;5.460;2024-01-11T12:39:08;103172.78;;;3.21;71.66